sensor_id;sensor_type;location;lat;lon;timestamp;temperature;humidity
14471;DHT22;7321;50.802;4.336;2022-09-09T00:09:45;16.90;99.90
14471;DHT22;7321;50.802;4.336;2022-09-09T00:12:34;16.90;99.90
14471;DHT22;7321;50.802;4.336;2022-09-09T00:15:11;16.80;99.90
14471;DHT22;7321;50.802;4.336;2022-09-09T00:18:02;16.90;99.90
14471;DHT22;7321;50.802;4.336;2022-09-09T00:20:45;16.90;99.90
14471;DHT22;7321;50.802;4.336;2022-09-09T00:23:19;17.00;99.90
14471;DHT22;7321;50.802;4.336;2022-09-09T00:26:10;16.90;99.90
14471;DHT22;7321;50.802;4.336;2022-09-09T00:31:30;16.90;99.90
14471;DHT22;7321;50.802;4.336;2022-09-09T00:34:19;16.80;99.90
14471;DHT22;7321;50.802;4.336;2022-09-09T00:36:49;16.80;99.90
14471;DHT22;7321;50.802;4.336;2022-09-09T00:39:34;16.80;99.90
14471;DHT22;7321;50.802;4.336;2022-09-09T00:42:16;16.80;99.90
14471;DHT22;7321;50.802;4.336;2022-09-09T00:47:51;16.70;99.90
14471;DHT22;7321;50.802;4.336;2022-09-09T00:58:34;16.90;99.90
14471;DHT22;7321;50.802;4.336;2022-09-09T01:01:08;16.90;99.90
14471;DHT22;7321;50.802;4.336;2022-09-09T01:03:36;17.00;99.90
14471;DHT22;7321;50.802;4.336;2022-09-09T01:06:16;16.90;99.90
14471;DHT22;7321;50.802;4.336;2022-09-09T01:14:40;17.00;99.90
14471;DHT22;7321;50.802;4.336;2022-09-09T01:17:16;17.00;99.90
14471;DHT22;7321;50.802;4.336;2022-09-09T01:27:28;17.30;99.90
14471;DHT22;7321;50.802;4.336;2022-09-09T01:29:54;17.10;99.90
14471;DHT22;7321;50.802;4.336;2022-09-09T01:32:48;17.00;99.90
14471;DHT22;7321;50.802;4.336;2022-09-09T01:38:07;17.10;99.90
14471;DHT22;7321;50.802;4.336;2022-09-09T01:40:33;17.10;99.90
14471;DHT22;7321;50.802;4.336;2022-09-09T01:42:59;17.00;99.90
14471;DHT22;7321;50.802;4.336;2022-09-09T01:45:24;17.00;99.90
14471;DHT22;7321;50.802;4.336;2022-09-09T01:47:52;17.10;99.90
14471;DHT22;7321;50.802;4.336;2022-09-09T01:50:19;17.00;99.90
14471;DHT22;7321;50.802;4.336;2022-09-09T01:52:48;16.90;99.90
14471;DHT22;7321;50.802;4.336;2022-09-09T01:55:15;16.80;99.90
14471;DHT22;7321;50.802;4.336;2022-09-09T02:00:33;16.70;99.90
14471;DHT22;7321;50.802;4.336;2022-09-09T02:03:11;16.60;99.90
14471;DHT22;7321;50.802;4.336;2022-09-09T02:06:14;16.70;99.90
14471;DHT22;7321;50.802;4.336;2022-09-09T02:08:49;16.80;99.90
14471;DHT22;7321;50.802;4.336;2022-09-09T02:11:21;16.70;99.90
14471;DHT22;7321;50.802;4.336;2022-09-09T02:13:49;16.60;99.90
14471;DHT22;7321;50.802;4.336;2022-09-09T02:19:32;16.70;99.90
14471;DHT22;7321;50.802;4.336;2022-09-09T02:22:01;16.70;99.90
14471;DHT22;7321;50.802;4.336;2022-09-09T02:24:30;16.70;99.90
14471;DHT22;7321;50.802;4.336;2022-09-09T02:26:58;16.80;99.90
14471;DHT22;7321;50.802;4.336;2022-09-09T02:29:29;16.80;99.90
14471;DHT22;7321;50.802;4.336;2022-09-09T02:32:00;16.80;99.90
14471;DHT22;7321;50.802;4.336;2022-09-09T02:34:29;16.80;99.90
14471;DHT22;7321;50.802;4.336;2022-09-09T02:36:57;16.80;99.90
14471;DHT22;7321;50.802;4.336;2022-09-09T02:39:25;16.80;99.90
14471;DHT22;7321;50.802;4.336;2022-09-09T02:41:51;16.80;99.90
14471;DHT22;7321;50.802;4.336;2022-09-09T02:44:18;16.80;99.90
14471;DHT22;7321;50.802;4.336;2022-09-09T02:46:58;16.80;99.90
14471;DHT22;7321;50.802;4.336;2022-09-09T02:49:40;16.70;99.90
14471;DHT22;7321;50.802;4.336;2022-09-09T02:52:08;16.70;99.90
14471;DHT22;7321;50.802;4.336;2022-09-09T02:54:41;16.70;99.90
14471;DHT22;7321;50.802;4.336;2022-09-09T02:57:26;16.70;99.90
14471;DHT22;7321;50.802;4.336;2022-09-09T02:59:53;16.70;99.90
14471;DHT22;7321;50.802;4.336;2022-09-09T03:02:22;16.70;99.90
14471;DHT22;7321;50.802;4.336;2022-09-09T03:04:48;16.70;99.90
14471;DHT22;7321;50.802;4.336;2022-09-09T03:07:18;16.70;99.90
14471;DHT22;7321;50.802;4.336;2022-09-09T03:09:44;16.80;99.90
14471;DHT22;7321;50.802;4.336;2022-09-09T03:12:11;17.00;99.90
14471;DHT22;7321;50.802;4.336;2022-09-09T03:14:37;17.00;99.90
14471;DHT22;7321;50.802;4.336;2022-09-09T03:17:05;16.90;99.90
14471;DHT22;7321;50.802;4.336;2022-09-09T03:19:31;16.80;99.90
14471;DHT22;7321;50.802;4.336;2022-09-09T03:21:57;16.70;99.90
14471;DHT22;7321;50.802;4.336;2022-09-09T03:24:24;16.60;99.90
14471;DHT22;7321;50.802;4.336;2022-09-09T03:26:50;16.60;99.90
14471;DHT22;7321;50.802;4.336;2022-09-09T03:29:16;16.60;99.90
14471;DHT22;7321;50.802;4.336;2022-09-09T03:31:43;16.70;99.90
14471;DHT22;7321;50.802;4.336;2022-09-09T03:34:09;16.60;99.90
14471;DHT22;7321;50.802;4.336;2022-09-09T03:36:35;16.80;99.90
14471;DHT22;7321;50.802;4.336;2022-09-09T03:39:02;16.70;99.90
14471;DHT22;7321;50.802;4.336;2022-09-09T03:41:29;16.60;99.90
14471;DHT22;7321;50.802;4.336;2022-09-09T03:43:56;16.60;99.90
14471;DHT22;7321;50.802;4.336;2022-09-09T03:46:25;16.50;99.90
14471;DHT22;7321;50.802;4.336;2022-09-09T03:48:51;16.60;99.90
14471;DHT22;7321;50.802;4.336;2022-09-09T03:51:20;16.60;99.90
14471;DHT22;7321;50.802;4.336;2022-09-09T03:53:47;16.60;99.90
14471;DHT22;7321;50.802;4.336;2022-09-09T03:56:13;16.50;99.90
14471;DHT22;7321;50.802;4.336;2022-09-09T03:58:39;16.60;99.90
14471;DHT22;7321;50.802;4.336;2022-09-09T04:01:06;16.70;99.90
14471;DHT22;7321;50.802;4.336;2022-09-09T04:03:34;16.70;99.90
14471;DHT22;7321;50.802;4.336;2022-09-09T04:06:01;16.80;99.90
14471;DHT22;7321;50.802;4.336;2022-09-09T04:08:28;16.90;99.90
14471;DHT22;7321;50.802;4.336;2022-09-09T04:10:56;17.00;99.90
14471;DHT22;7321;50.802;4.336;2022-09-09T04:13:24;16.90;99.90
14471;DHT22;7321;50.802;4.336;2022-09-09T04:15:58;16.80;99.90
14471;DHT22;7321;50.802;4.336;2022-09-09T04:18:24;16.80;99.90
14471;DHT22;7321;50.802;4.336;2022-09-09T04:20:52;16.80;99.90
14471;DHT22;7321;50.802;4.336;2022-09-09T04:23:19;16.80;99.90
14471;DHT22;7321;50.802;4.336;2022-09-09T04:25:50;16.80;99.90
14471;DHT22;7321;50.802;4.336;2022-09-09T04:28:18;16.70;99.90
14471;DHT22;7321;50.802;4.336;2022-09-09T04:30:45;16.60;99.90
14471;DHT22;7321;50.802;4.336;2022-09-09T04:33:12;16.70;99.90
14471;DHT22;7321;50.802;4.336;2022-09-09T04:35:38;16.60;99.90
14471;DHT22;7321;50.802;4.336;2022-09-09T04:38:17;16.60;99.90
14471;DHT22;7321;50.802;4.336;2022-09-09T04:40:47;16.60;99.90
14471;DHT22;7321;50.802;4.336;2022-09-09T04:43:14;16.70;99.90
14471;DHT22;7321;50.802;4.336;2022-09-09T04:45:43;16.80;99.90
14471;DHT22;7321;50.802;4.336;2022-09-09T04:48:11;16.60;99.90
14471;DHT22;7321;50.802;4.336;2022-09-09T04:50:40;16.70;99.90
14471;DHT22;7321;50.802;4.336;2022-09-09T04:53:06;16.70;99.90
14471;DHT22;7321;50.802;4.336;2022-09-09T04:55:33;16.60;99.90
14471;DHT22;7321;50.802;4.336;2022-09-09T04:58:08;16.40;99.90
14471;DHT22;7321;50.802;4.336;2022-09-09T05:00:35;16.40;99.90
14471;DHT22;7321;50.802;4.336;2022-09-09T05:03:05;16.50;99.90
14471;DHT22;7321;50.802;4.336;2022-09-09T05:05:32;16.60;99.90
14471;DHT22;7321;50.802;4.336;2022-09-09T05:08:05;16.60;99.90
14471;DHT22;7321;50.802;4.336;2022-09-09T05:10:37;16.60;99.90
14471;DHT22;7321;50.802;4.336;2022-09-09T05:13:03;16.70;99.90
14471;DHT22;7321;50.802;4.336;2022-09-09T05:15:30;16.70;99.90
14471;DHT22;7321;50.802;4.336;2022-09-09T05:18:02;16.80;99.90
14471;DHT22;7321;50.802;4.336;2022-09-09T05:20:28;16.80;99.90
14471;DHT22;7321;50.802;4.336;2022-09-09T05:22:55;16.80;99.90
14471;DHT22;7321;50.802;4.336;2022-09-09T05:25:20;17.00;99.90
14471;DHT22;7321;50.802;4.336;2022-09-09T05:27:47;17.00;99.90
14471;DHT22;7321;50.802;4.336;2022-09-09T05:30:13;17.10;99.90
14471;DHT22;7321;50.802;4.336;2022-09-09T05:32:39;17.20;99.90
14471;DHT22;7321;50.802;4.336;2022-09-09T05:35:05;17.30;99.90
14471;DHT22;7321;50.802;4.336;2022-09-09T05:37:31;17.30;99.90
14471;DHT22;7321;50.802;4.336;2022-09-09T05:39:57;17.30;99.90
14471;DHT22;7321;50.802;4.336;2022-09-09T05:42:23;17.40;99.90
14471;DHT22;7321;50.802;4.336;2022-09-09T05:44:49;17.40;99.90
14471;DHT22;7321;50.802;4.336;2022-09-09T05:47:16;17.20;99.90
14471;DHT22;7321;50.802;4.336;2022-09-09T05:49:42;17.20;99.90
14471;DHT22;7321;50.802;4.336;2022-09-09T05:52:08;17.30;99.90
14471;DHT22;7321;50.802;4.336;2022-09-09T05:54:35;17.40;99.90
14471;DHT22;7321;50.802;4.336;2022-09-09T05:57:02;17.50;99.90
14471;DHT22;7321;50.802;4.336;2022-09-09T05:59:28;17.50;99.90
14471;DHT22;7321;50.802;4.336;2022-09-09T06:01:54;17.50;99.90
14471;DHT22;7321;50.802;4.336;2022-09-09T06:04:19;17.50;99.90
14471;DHT22;7321;50.802;4.336;2022-09-09T06:06:47;17.60;99.90
14471;DHT22;7321;50.802;4.336;2022-09-09T06:09:14;17.50;99.90
14471;DHT22;7321;50.802;4.336;2022-09-09T06:11:41;17.50;99.90
14471;DHT22;7321;50.802;4.336;2022-09-09T06:14:07;17.70;99.90
14471;DHT22;7321;50.802;4.336;2022-09-09T06:16:34;17.80;99.90
14471;DHT22;7321;50.802;4.336;2022-09-09T06:19:00;17.80;99.90
14471;DHT22;7321;50.802;4.336;2022-09-09T06:21:32;18.00;99.90
14471;DHT22;7321;50.802;4.336;2022-09-09T06:24:02;17.80;99.90
14471;DHT22;7321;50.802;4.336;2022-09-09T06:26:33;17.70;99.90
14471;DHT22;7321;50.802;4.336;2022-09-09T06:29:00;17.70;99.90
14471;DHT22;7321;50.802;4.336;2022-09-09T06:31:28;17.80;99.90
14471;DHT22;7321;50.802;4.336;2022-09-09T06:33:58;17.90;99.90
14471;DHT22;7321;50.802;4.336;2022-09-09T06:36:26;17.90;99.90
14471;DHT22;7321;50.802;4.336;2022-09-09T06:38:52;17.90;99.90
14471;DHT22;7321;50.802;4.336;2022-09-09T06:41:20;17.80;99.90
14471;DHT22;7321;50.802;4.336;2022-09-09T06:43:46;17.80;99.90
14471;DHT22;7321;50.802;4.336;2022-09-09T06:48:40;17.90;99.90
14471;DHT22;7321;50.802;4.336;2022-09-09T06:51:09;18.00;99.90
14471;DHT22;7321;50.802;4.336;2022-09-09T06:53:37;18.20;99.90
14471;DHT22;7321;50.802;4.336;2022-09-09T06:58:39;18.30;99.90
14471;DHT22;7321;50.802;4.336;2022-09-09T07:01:11;18.40;99.90
14471;DHT22;7321;50.802;4.336;2022-09-09T07:03:42;18.40;99.90
14471;DHT22;7321;50.802;4.336;2022-09-09T07:06:12;18.50;99.90
14471;DHT22;7321;50.802;4.336;2022-09-09T07:08:40;18.50;99.90
14471;DHT22;7321;50.802;4.336;2022-09-09T07:11:07;18.60;99.90
14471;DHT22;7321;50.802;4.336;2022-09-09T07:13:34;18.50;99.90
14471;DHT22;7321;50.802;4.336;2022-09-09T07:16:05;18.50;99.90
14471;DHT22;7321;50.802;4.336;2022-09-09T07:18:31;18.50;99.90
14471;DHT22;7321;50.802;4.336;2022-09-09T07:20:57;18.50;99.90
14471;DHT22;7321;50.802;4.336;2022-09-09T07:23:23;18.40;99.90
14471;DHT22;7321;50.802;4.336;2022-09-09T07:25:49;18.50;99.90
14471;DHT22;7321;50.802;4.336;2022-09-09T07:28:16;18.50;99.90
14471;DHT22;7321;50.802;4.336;2022-09-09T07:30:42;18.50;99.90
14471;DHT22;7321;50.802;4.336;2022-09-09T07:33:09;18.30;99.90
14471;DHT22;7321;50.802;4.336;2022-09-09T07:35:35;18.20;99.90
14471;DHT22;7321;50.802;4.336;2022-09-09T07:38:05;18.20;99.90
14471;DHT22;7321;50.802;4.336;2022-09-09T07:40:33;18.20;99.90
14471;DHT22;7321;50.802;4.336;2022-09-09T07:43:00;18.10;99.90
14471;DHT22;7321;50.802;4.336;2022-09-09T07:45:26;18.10;99.90
14471;DHT22;7321;50.802;4.336;2022-09-09T07:47:54;18.10;99.90
14471;DHT22;7321;50.802;4.336;2022-09-09T07:50:24;18.20;99.90
14471;DHT22;7321;50.802;4.336;2022-09-09T07:52:53;18.30;99.90
14471;DHT22;7321;50.802;4.336;2022-09-09T07:55:23;18.20;99.90
14471;DHT22;7321;50.802;4.336;2022-09-09T07:57:53;18.20;99.90
14471;DHT22;7321;50.802;4.336;2022-09-09T08:00:19;18.20;99.90
14471;DHT22;7321;50.802;4.336;2022-09-09T08:02:45;18.20;99.90
14471;DHT22;7321;50.802;4.336;2022-09-09T08:05:15;18.30;99.90
14471;DHT22;7321;50.802;4.336;2022-09-09T08:07:42;18.50;99.90
14471;DHT22;7321;50.802;4.336;2022-09-09T08:10:08;18.50;99.90
14471;DHT22;7321;50.802;4.336;2022-09-09T08:12:34;18.80;99.90
14471;DHT22;7321;50.802;4.336;2022-09-09T08:15:00;19.00;99.90
14471;DHT22;7321;50.802;4.336;2022-09-09T08:17:26;19.00;99.90
14471;DHT22;7321;50.802;4.336;2022-09-09T08:19:51;19.10;99.90
14471;DHT22;7321;50.802;4.336;2022-09-09T08:22:17;19.00;99.90
14471;DHT22;7321;50.802;4.336;2022-09-09T08:24:43;19.10;99.90
14471;DHT22;7321;50.802;4.336;2022-09-09T08:27:09;19.10;99.90
14471;DHT22;7321;50.802;4.336;2022-09-09T08:29:35;19.20;99.90
14471;DHT22;7321;50.802;4.336;2022-09-09T08:32:03;19.20;99.90
14471;DHT22;7321;50.802;4.336;2022-09-09T08:34:30;19.10;99.90
14471;DHT22;7321;50.802;4.336;2022-09-09T08:36:56;19.00;99.90
14471;DHT22;7321;50.802;4.336;2022-09-09T08:39:23;18.90;99.90
14471;DHT22;7321;50.802;4.336;2022-09-09T08:42:02;18.90;99.90
14471;DHT22;7321;50.802;4.336;2022-09-09T09:03:38;19.20;99.90
14471;DHT22;7321;50.802;4.336;2022-09-09T09:09:51;18.90;99.90
14471;DHT22;7321;50.802;4.336;2022-09-09T09:12:27;19.00;99.90
14471;DHT22;7321;50.802;4.336;2022-09-09T09:14:54;19.00;99.90
14471;DHT22;7321;50.802;4.336;2022-09-09T09:17:24;18.70;99.90
14471;DHT22;7321;50.802;4.336;2022-09-09T09:19:51;18.80;99.90
14471;DHT22;7321;50.802;4.336;2022-09-09T09:25:21;18.80;99.90
14471;DHT22;7321;50.802;4.336;2022-09-09T09:30:22;18.60;99.90
14471;DHT22;7321;50.802;4.336;2022-09-09T09:32:59;18.60;99.90
14471;DHT22;7321;50.802;4.336;2022-09-09T09:35:26;18.50;99.90
14471;DHT22;7321;50.802;4.336;2022-09-09T09:37:52;18.50;99.90
14471;DHT22;7321;50.802;4.336;2022-09-09T09:40:20;18.50;99.90
14471;DHT22;7321;50.802;4.336;2022-09-09T09:43:02;18.50;99.90
14471;DHT22;7321;50.802;4.336;2022-09-09T09:45:40;18.60;99.90
14471;DHT22;7321;50.802;4.336;2022-09-09T09:48:11;18.60;99.90
14471;DHT22;7321;50.802;4.336;2022-09-09T09:50:48;18.60;99.90
14471;DHT22;7321;50.802;4.336;2022-09-09T09:53:24;18.60;99.90
14471;DHT22;7321;50.802;4.336;2022-09-09T09:56:10;18.50;99.90
14471;DHT22;7321;50.802;4.336;2022-09-09T10:01:33;18.50;99.90
14471;DHT22;7321;50.802;4.336;2022-09-09T10:04:12;18.50;99.90
14471;DHT22;7321;50.802;4.336;2022-09-09T10:06:38;18.60;99.90
14471;DHT22;7321;50.802;4.336;2022-09-09T10:20:11;18.40;99.90
14471;DHT22;7321;50.802;4.336;2022-09-09T10:22:45;18.40;99.90
14471;DHT22;7321;50.802;4.336;2022-09-09T10:25:34;18.40;99.90
14471;DHT22;7321;50.802;4.336;2022-09-09T10:28:30;18.50;99.90
14471;DHT22;7321;50.802;4.336;2022-09-09T10:36:40;19.00;99.90
14471;DHT22;7321;50.802;4.336;2022-09-09T10:39:35;19.10;99.90
14471;DHT22;7321;50.802;4.336;2022-09-09T10:42:04;19.10;99.90
14471;DHT22;7321;50.802;4.336;2022-09-09T10:51:18;19.80;99.90
14471;DHT22;7321;50.802;4.336;2022-09-09T10:53:53;20.10;99.90
14471;DHT22;7321;50.802;4.336;2022-09-09T10:56:24;20.00;99.90
14471;DHT22;7321;50.802;4.336;2022-09-09T10:59:13;20.00;99.90
14471;DHT22;7321;50.802;4.336;2022-09-09T11:01:49;20.10;99.90
14471;DHT22;7321;50.802;4.336;2022-09-09T11:04:25;20.00;99.90
14471;DHT22;7321;50.802;4.336;2022-09-09T11:06:54;19.90;99.90
14471;DHT22;7321;50.802;4.336;2022-09-09T11:09:25;20.00;99.90
14471;DHT22;7321;50.802;4.336;2022-09-09T11:11:55;20.00;99.90
14471;DHT22;7321;50.802;4.336;2022-09-09T11:17:22;20.10;99.90
14471;DHT22;7321;50.802;4.336;2022-09-09T11:19:49;20.10;99.90
14471;DHT22;7321;50.802;4.336;2022-09-09T11:22:39;20.20;99.90
14471;DHT22;7321;50.802;4.336;2022-09-09T11:25:18;20.20;99.90
14471;DHT22;7321;50.802;4.336;2022-09-09T11:36:21;20.10;99.90
14471;DHT22;7321;50.802;4.336;2022-09-09T11:40:00;19.90;99.90
14471;DHT22;7321;50.802;4.336;2022-09-09T11:41:51;20.00;99.90
14471;DHT22;7321;50.802;4.336;2022-09-09T11:44:23;20.00;99.90
14471;DHT22;7321;50.802;4.336;2022-09-09T11:46:51;20.10;99.90
14471;DHT22;7321;50.802;4.336;2022-09-09T11:49:40;20.30;99.90
14471;DHT22;7321;50.802;4.336;2022-09-09T11:52:34;20.40;99.90
14471;DHT22;7321;50.802;4.336;2022-09-09T11:55:30;20.50;99.90
14471;DHT22;7321;50.802;4.336;2022-09-09T11:57:59;20.50;99.90
14471;DHT22;7321;50.802;4.336;2022-09-09T12:00:41;20.40;99.90
14471;DHT22;7321;50.802;4.336;2022-09-09T12:11:50;20.10;99.90
14471;DHT22;7321;50.802;4.336;2022-09-09T12:14:23;20.00;99.90
14471;DHT22;7321;50.802;4.336;2022-09-09T12:17:21;20.00;99.90
14471;DHT22;7321;50.802;4.336;2022-09-09T12:19:48;20.10;99.90
14471;DHT22;7321;50.802;4.336;2022-09-09T12:22:35;20.00;99.90
14471;DHT22;7321;50.802;4.336;2022-09-09T12:28:00;20.10;99.90
14471;DHT22;7321;50.802;4.336;2022-09-09T12:33:18;20.30;99.90
14471;DHT22;7321;50.802;4.336;2022-09-09T12:35:48;20.30;99.90
14471;DHT22;7321;50.802;4.336;2022-09-09T12:38:29;20.50;99.90
14471;DHT22;7321;50.802;4.336;2022-09-09T12:40:58;20.60;99.90
14471;DHT22;7321;50.802;4.336;2022-09-09T12:43:25;20.70;99.90
14471;DHT22;7321;50.802;4.336;2022-09-09T12:46:00;20.70;99.90
14471;DHT22;7321;50.802;4.336;2022-09-09T12:48:47;20.90;99.90
14471;DHT22;7321;50.802;4.336;2022-09-09T12:51:26;21.20;99.90
14471;DHT22;7321;50.802;4.336;2022-09-09T12:53:53;21.20;99.90
14471;DHT22;7321;50.802;4.336;2022-09-09T12:56:23;21.30;99.90
14471;DHT22;7321;50.802;4.336;2022-09-09T12:58:53;21.50;99.90
14471;DHT22;7321;50.802;4.336;2022-09-09T13:01:26;21.50;99.90
14471;DHT22;7321;50.802;4.336;2022-09-09T13:03:52;21.30;99.90
14471;DHT22;7321;50.802;4.336;2022-09-09T13:06:24;21.20;99.90
14471;DHT22;7321;50.802;4.336;2022-09-09T13:08:52;21.20;99.90
14471;DHT22;7321;50.802;4.336;2022-09-09T13:11:39;21.40;99.90
14471;DHT22;7321;50.802;4.336;2022-09-09T13:14:20;21.40;99.90
14471;DHT22;7321;50.802;4.336;2022-09-09T13:16:59;21.40;99.90
14471;DHT22;7321;50.802;4.336;2022-09-09T13:19:25;21.30;99.90
14471;DHT22;7321;50.802;4.336;2022-09-09T13:21:54;21.20;99.90
14471;DHT22;7321;50.802;4.336;2022-09-09T13:24:34;21.20;99.90
14471;DHT22;7321;50.802;4.336;2022-09-09T13:27:02;21.30;99.90
14471;DHT22;7321;50.802;4.336;2022-09-09T13:29:29;21.50;99.90
14471;DHT22;7321;50.802;4.336;2022-09-09T13:32:12;21.70;99.90
14471;DHT22;7321;50.802;4.336;2022-09-09T13:34:38;21.80;99.90
14471;DHT22;7321;50.802;4.336;2022-09-09T13:37:05;21.90;99.90
14471;DHT22;7321;50.802;4.336;2022-09-09T13:39:36;22.20;99.90
14471;DHT22;7321;50.802;4.336;2022-09-09T13:42:03;22.20;99.90
14471;DHT22;7321;50.802;4.336;2022-09-09T13:44:37;22.50;99.90
14471;DHT22;7321;50.802;4.336;2022-09-09T13:49:38;22.70;99.90
14471;DHT22;7321;50.802;4.336;2022-09-09T13:52:12;22.60;99.90
14471;DHT22;7321;50.802;4.336;2022-09-09T13:54:39;22.40;99.90
14471;DHT22;7321;50.802;4.336;2022-09-09T13:57:12;22.30;99.90
14471;DHT22;7321;50.802;4.336;2022-09-09T13:59:40;22.30;99.90
14471;DHT22;7321;50.802;4.336;2022-09-09T14:02:07;22.30;99.90
14471;DHT22;7321;50.802;4.336;2022-09-09T14:04:32;22.30;99.90
14471;DHT22;7321;50.802;4.336;2022-09-09T14:07:01;22.30;99.90
14471;DHT22;7321;50.802;4.336;2022-09-09T14:09:27;22.50;99.90
14471;DHT22;7321;50.802;4.336;2022-09-09T14:11:52;22.40;99.90
14471;DHT22;7321;50.802;4.336;2022-09-09T14:14:18;22.30;99.90
14471;DHT22;7321;50.802;4.336;2022-09-09T14:16:44;22.20;99.90
14471;DHT22;7321;50.802;4.336;2022-09-09T14:19:10;22.10;99.90
14471;DHT22;7321;50.802;4.336;2022-09-09T14:21:35;22.00;99.90
14471;DHT22;7321;50.802;4.336;2022-09-09T14:24:01;21.90;99.90
14471;DHT22;7321;50.802;4.336;2022-09-09T14:26:27;21.90;99.90
14471;DHT22;7321;50.802;4.336;2022-09-09T14:28:54;21.90;99.90
14471;DHT22;7321;50.802;4.336;2022-09-09T14:31:20;22.00;99.90
14471;DHT22;7321;50.802;4.336;2022-09-09T14:33:46;21.90;99.90
14471;DHT22;7321;50.802;4.336;2022-09-09T14:36:12;22.10;99.90
14471;DHT22;7321;50.802;4.336;2022-09-09T14:38:38;22.20;99.90
14471;DHT22;7321;50.802;4.336;2022-09-09T14:41:06;22.20;99.90
14471;DHT22;7321;50.802;4.336;2022-09-09T14:43:32;22.20;99.90
14471;DHT22;7321;50.802;4.336;2022-09-09T14:46:05;22.10;99.90
14471;DHT22;7321;50.802;4.336;2022-09-09T14:48:31;22.00;99.90
14471;DHT22;7321;50.802;4.336;2022-09-09T14:51:08;22.00;99.90
14471;DHT22;7321;50.802;4.336;2022-09-09T14:53:34;22.00;99.90
14471;DHT22;7321;50.802;4.336;2022-09-09T14:56:06;22.10;99.90
14471;DHT22;7321;50.802;4.336;2022-09-09T14:58:32;22.20;99.90
14471;DHT22;7321;50.802;4.336;2022-09-09T15:01:03;22.20;99.90
14471;DHT22;7321;50.802;4.336;2022-09-09T15:03:29;22.00;99.90
14471;DHT22;7321;50.802;4.336;2022-09-09T15:05:55;22.10;99.90
14471;DHT22;7321;50.802;4.336;2022-09-09T15:08:21;22.20;99.90
14471;DHT22;7321;50.802;4.336;2022-09-09T15:10:46;22.30;99.90
14471;DHT22;7321;50.802;4.336;2022-09-09T15:13:14;22.40;99.90
14471;DHT22;7321;50.802;4.336;2022-09-09T15:15:42;22.30;99.90
14471;DHT22;7321;50.802;4.336;2022-09-09T15:18:08;22.30;99.90
14471;DHT22;7321;50.802;4.336;2022-09-09T15:20:34;22.30;99.90
14471;DHT22;7321;50.802;4.336;2022-09-09T15:23:01;22.30;99.90
14471;DHT22;7321;50.802;4.336;2022-09-09T15:25:26;22.20;99.90
14471;DHT22;7321;50.802;4.336;2022-09-09T15:27:52;22.10;99.90
14471;DHT22;7321;50.802;4.336;2022-09-09T15:30:18;22.00;99.90
14471;DHT22;7321;50.802;4.336;2022-09-09T15:32:43;21.80;99.90
14471;DHT22;7321;50.802;4.336;2022-09-09T15:35:09;21.80;99.90
14471;DHT22;7321;50.802;4.336;2022-09-09T15:37:35;21.80;99.90
14471;DHT22;7321;50.802;4.336;2022-09-09T15:40:01;21.90;99.90
14471;DHT22;7321;50.802;4.336;2022-09-09T15:42:27;21.80;99.90
14471;DHT22;7321;50.802;4.336;2022-09-09T15:44:52;21.90;99.90
14471;DHT22;7321;50.802;4.336;2022-09-09T15:47:18;22.00;99.90
14471;DHT22;7321;50.802;4.336;2022-09-09T15:49:44;22.10;99.90
14471;DHT22;7321;50.802;4.336;2022-09-09T15:52:10;22.30;99.90
14471;DHT22;7321;50.802;4.336;2022-09-09T15:54:37;22.40;99.90
14471;DHT22;7321;50.802;4.336;2022-09-09T15:57:07;22.60;99.90
14471;DHT22;7321;50.802;4.336;2022-09-09T15:59:34;22.90;99.90
14471;DHT22;7321;50.802;4.336;2022-09-09T16:02:00;23.00;99.90
14471;DHT22;7321;50.802;4.336;2022-09-09T16:04:27;22.90;99.90
14471;DHT22;7321;50.802;4.336;2022-09-09T16:07:12;22.80;99.90
14471;DHT22;7321;50.802;4.336;2022-09-09T16:09:39;22.70;99.90
14471;DHT22;7321;50.802;4.336;2022-09-09T16:12:05;22.60;99.90
14471;DHT22;7321;50.802;4.336;2022-09-09T16:14:37;22.30;99.90
14471;DHT22;7321;50.802;4.336;2022-09-09T16:17:04;22.10;99.90
14471;DHT22;7321;50.802;4.336;2022-09-09T16:19:31;21.90;99.90
14471;DHT22;7321;50.802;4.336;2022-09-09T16:21:57;21.90;99.90
14471;DHT22;7321;50.802;4.336;2022-09-09T16:24:23;21.70;99.90
14471;DHT22;7321;50.802;4.336;2022-09-09T16:26:53;21.20;99.90
14471;DHT22;7321;50.802;4.336;2022-09-09T16:29:20;20.90;99.90
14471;DHT22;7321;50.802;4.336;2022-09-09T16:31:49;20.60;99.90
14471;DHT22;7321;50.802;4.336;2022-09-09T16:34:16;20.30;99.90
14471;DHT22;7321;50.802;4.336;2022-09-09T16:36:43;20.30;99.90
14471;DHT22;7321;50.802;4.336;2022-09-09T16:39:12;20.10;99.90
14471;DHT22;7321;50.802;4.336;2022-09-09T16:41:39;20.20;99.90
14471;DHT22;7321;50.802;4.336;2022-09-09T16:44:08;20.20;99.90
14471;DHT22;7321;50.802;4.336;2022-09-09T16:46:36;20.30;99.90
14471;DHT22;7321;50.802;4.336;2022-09-09T16:49:05;20.40;99.90
14471;DHT22;7321;50.802;4.336;2022-09-09T16:51:35;20.60;99.90
14471;DHT22;7321;50.802;4.336;2022-09-09T16:54:03;20.70;99.90
14471;DHT22;7321;50.802;4.336;2022-09-09T16:56:30;20.70;99.90
14471;DHT22;7321;50.802;4.336;2022-09-09T16:59:03;20.80;99.90
14471;DHT22;7321;50.802;4.336;2022-09-09T17:01:32;20.80;99.90
14471;DHT22;7321;50.802;4.336;2022-09-09T17:04:04;20.70;99.90
14471;DHT22;7321;50.802;4.336;2022-09-09T17:06:31;20.50;99.90
14471;DHT22;7321;50.802;4.336;2022-09-09T17:09:06;20.50;99.90
14471;DHT22;7321;50.802;4.336;2022-09-09T17:11:33;20.50;99.90
14471;DHT22;7321;50.802;4.336;2022-09-09T17:13:59;20.50;99.90
14471;DHT22;7321;50.802;4.336;2022-09-09T17:16:27;20.40;99.90
14471;DHT22;7321;50.802;4.336;2022-09-09T17:18:54;20.40;99.90
14471;DHT22;7321;50.802;4.336;2022-09-09T17:21:22;20.10;99.90
14471;DHT22;7321;50.802;4.336;2022-09-09T17:23:49;19.80;99.90
14471;DHT22;7321;50.802;4.336;2022-09-09T17:26:17;19.80;99.90
14471;DHT22;7321;50.802;4.336;2022-09-09T17:28:44;19.80;99.90
14471;DHT22;7321;50.802;4.336;2022-09-09T17:31:12;19.70;99.90
14471;DHT22;7321;50.802;4.336;2022-09-09T17:33:41;19.60;99.90
14471;DHT22;7321;50.802;4.336;2022-09-09T17:36:18;19.50;99.90
14471;DHT22;7321;50.802;4.336;2022-09-09T17:38:44;19.50;99.90
14471;DHT22;7321;50.802;4.336;2022-09-09T17:43:38;19.50;99.90
14471;DHT22;7321;50.802;4.336;2022-09-09T17:46:12;19.40;99.90
14471;DHT22;7321;50.802;4.336;2022-09-09T17:48:39;19.50;99.90
14471;DHT22;7321;50.802;4.336;2022-09-09T17:51:06;19.50;99.90
14471;DHT22;7321;50.802;4.336;2022-09-09T17:53:43;19.40;99.90
14471;DHT22;7321;50.802;4.336;2022-09-09T17:56:12;19.30;99.90
14471;DHT22;7321;50.802;4.336;2022-09-09T17:58:38;19.30;99.90
14471;DHT22;7321;50.802;4.336;2022-09-09T18:01:07;19.30;99.90
14471;DHT22;7321;50.802;4.336;2022-09-09T18:03:34;19.20;99.90
14471;DHT22;7321;50.802;4.336;2022-09-09T18:06:07;19.20;99.90
14471;DHT22;7321;50.802;4.336;2022-09-09T18:08:34;19.20;99.90
14471;DHT22;7321;50.802;4.336;2022-09-09T18:11:03;19.20;99.90
14471;DHT22;7321;50.802;4.336;2022-09-09T18:13:30;19.20;99.90
14471;DHT22;7321;50.802;4.336;2022-09-09T18:15:56;19.20;99.90
14471;DHT22;7321;50.802;4.336;2022-09-09T18:18:23;19.20;99.90